sensor_id;sensor_type;location;lat;lon;timestamp;temperature;humidity
6357;DHT22;3211;53.452;-2.264;2024-03-08T00:00:39;6.70;99.90
6357;DHT22;3211;53.452;-2.264;2024-03-08T00:03:29;6.70;99.90
6357;DHT22;3211;53.452;-2.264;2024-03-08T00:06:18;6.70;99.90
6357;DHT22;3211;53.452;-2.264;2024-03-08T00:09:05;6.70;99.90
6357;DHT22;3211;53.452;-2.264;2024-03-08T00:11:53;6.70;99.90
6357;DHT22;3211;53.452;-2.264;2024-03-08T00:14:40;6.90;99.90
6357;DHT22;3211;53.452;-2.264;2024-03-08T00:17:28;6.90;99.90
6357;DHT22;3211;53.452;-2.264;2024-03-08T00:20:17;6.80;99.90
6357;DHT22;3211;53.452;-2.264;2024-03-08T00:23:04;6.80;99.90
6357;DHT22;3211;53.452;-2.264;2024-03-08T00:25:52;6.80;99.90
6357;DHT22;3211;53.452;-2.264;2024-03-08T00:28:39;6.70;99.90
6357;DHT22;3211;53.452;-2.264;2024-03-08T00:31:27;6.70;99.90
6357;DHT22;3211;53.452;-2.264;2024-03-08T00:34:16;6.70;99.90
6357;DHT22;3211;53.452;-2.264;2024-03-08T00:37:05;6.70;99.90
6357;DHT22;3211;53.452;-2.264;2024-03-08T00:39:52;6.50;99.90
6357;DHT22;3211;53.452;-2.264;2024-03-08T00:42:40;6.60;99.90
6357;DHT22;3211;53.452;-2.264;2024-03-08T00:45:29;6.60;99.90
6357;DHT22;3211;53.452;-2.264;2024-03-08T00:48:16;6.60;99.90
6357;DHT22;3211;53.452;-2.264;2024-03-08T00:51:04;6.60;99.90
6357;DHT22;3211;53.452;-2.264;2024-03-08T00:53:52;6.50;99.90
6357;DHT22;3211;53.452;-2.264;2024-03-08T00:56:40;6.50;99.90
6357;DHT22;3211;53.452;-2.264;2024-03-08T00:59:27;6.60;99.90
6357;DHT22;3211;53.452;-2.264;2024-03-08T01:02:14;6.60;99.90
6357;DHT22;3211;53.452;-2.264;2024-03-08T01:05:03;6.60;99.90
6357;DHT22;3211;53.452;-2.264;2024-03-08T01:07:53;6.60;99.90
6357;DHT22;3211;53.452;-2.264;2024-03-08T01:10:41;6.60;99.90
6357;DHT22;3211;53.452;-2.264;2024-03-08T01:13:28;6.70;99.90
6357;DHT22;3211;53.452;-2.264;2024-03-08T01:16:16;6.60;99.90
6357;DHT22;3211;53.452;-2.264;2024-03-08T01:19:04;6.50;99.90
6357;DHT22;3211;53.452;-2.264;2024-03-08T01:21:51;6.40;99.90
6357;DHT22;3211;53.452;-2.264;2024-03-08T01:24:38;6.30;99.90
6357;DHT22;3211;53.452;-2.264;2024-03-08T01:27:27;6.40;99.90
6357;DHT22;3211;53.452;-2.264;2024-03-08T01:30:14;6.30;99.90
6357;DHT22;3211;53.452;-2.264;2024-03-08T01:33:03;6.30;99.90
6357;DHT22;3211;53.452;-2.264;2024-03-08T01:35:51;6.30;99.90
6357;DHT22;3211;53.452;-2.264;2024-03-08T01:38:39;6.40;99.90
6357;DHT22;3211;53.452;-2.264;2024-03-08T01:41:26;6.30;99.90
6357;DHT22;3211;53.452;-2.264;2024-03-08T01:44:16;6.30;99.90
6357;DHT22;3211;53.452;-2.264;2024-03-08T01:47:04;6.20;99.90
6357;DHT22;3211;53.452;-2.264;2024-03-08T01:49:52;6.20;99.90
6357;DHT22;3211;53.452;-2.264;2024-03-08T01:52:39;6.20;99.90
6357;DHT22;3211;53.452;-2.264;2024-03-08T01:55:27;6.30;99.90
6357;DHT22;3211;53.452;-2.264;2024-03-08T01:58:14;6.20;99.90
6357;DHT22;3211;53.452;-2.264;2024-03-08T02:01:03;6.20;99.90
6357;DHT22;3211;53.452;-2.264;2024-03-08T02:03:51;6.20;99.90
6357;DHT22;3211;53.452;-2.264;2024-03-08T02:06:39;6.10;99.90
6357;DHT22;3211;53.452;-2.264;2024-03-08T02:09:26;6.10;99.90
6357;DHT22;3211;53.452;-2.264;2024-03-08T02:12:13;6.10;99.90
6357;DHT22;3211;53.452;-2.264;2024-03-08T02:15:01;6.10;99.90
6357;DHT22;3211;53.452;-2.264;2024-03-08T02:17:49;6.10;99.90
6357;DHT22;3211;53.452;-2.264;2024-03-08T02:20:38;6.10;99.90
6357;DHT22;3211;53.452;-2.264;2024-03-08T02:23:26;6.10;99.90
6357;DHT22;3211;53.452;-2.264;2024-03-08T02:26:13;6.20;99.90
6357;DHT22;3211;53.452;-2.264;2024-03-08T02:29:01;6.20;99.90
6357;DHT22;3211;53.452;-2.264;2024-03-08T02:31:51;6.20;99.90
6357;DHT22;3211;53.452;-2.264;2024-03-08T02:34:38;6.20;99.90
6357;DHT22;3211;53.452;-2.264;2024-03-08T02:37:27;6.20;99.90
6357;DHT22;3211;53.452;-2.264;2024-03-08T02:40:15;6.20;99.90
6357;DHT22;3211;53.452;-2.264;2024-03-08T02:43:02;6.30;99.90
6357;DHT22;3211;53.452;-2.264;2024-03-08T02:45:51;6.30;99.90
6357;DHT22;3211;53.452;-2.264;2024-03-08T02:48:39;6.30;99.90
6357;DHT22;3211;53.452;-2.264;2024-03-08T02:51:26;6.40;99.90
6357;DHT22;3211;53.452;-2.264;2024-03-08T02:54:14;6.40;99.90
6357;DHT22;3211;53.452;-2.264;2024-03-08T02:57:03;6.50;99.90
6357;DHT22;3211;53.452;-2.264;2024-03-08T02:59:53;6.50;99.90
6357;DHT22;3211;53.452;-2.264;2024-03-08T03:02:41;6.60;99.90
6357;DHT22;3211;53.452;-2.264;2024-03-08T03:05:29;6.60;99.90
6357;DHT22;3211;53.452;-2.264;2024-03-08T03:08:17;6.60;99.90
6357;DHT22;3211;53.452;-2.264;2024-03-08T03:11:06;6.70;99.90
6357;DHT22;3211;53.452;-2.264;2024-03-08T03:13:54;6.70;99.90
6357;DHT22;3211;53.452;-2.264;2024-03-08T03:16:41;6.60;99.90
6357;DHT22;3211;53.452;-2.264;2024-03-08T03:19:29;6.60;99.90
6357;DHT22;3211;53.452;-2.264;2024-03-08T03:22:16;6.70;99.90
6357;DHT22;3211;53.452;-2.264;2024-03-08T03:25:04;6.70;99.90
6357;DHT22;3211;53.452;-2.264;2024-03-08T03:27:54;6.70;99.90
6357;DHT22;3211;53.452;-2.264;2024-03-08T03:30:42;6.70;99.90
6357;DHT22;3211;53.452;-2.264;2024-03-08T03:33:29;6.80;99.90
6357;DHT22;3211;53.452;-2.264;2024-03-08T03:36:20;6.70;99.90
6357;DHT22;3211;53.452;-2.264;2024-03-08T03:39:07;6.80;99.90
6357;DHT22;3211;53.452;-2.264;2024-03-08T03:41:58;6.80;99.90
6357;DHT22;3211;53.452;-2.264;2024-03-08T03:44:47;6.90;99.90
6357;DHT22;3211;53.452;-2.264;2024-03-08T03:47:34;6.80;99.90
6357;DHT22;3211;53.452;-2.264;2024-03-08T03:50:21;6.80;99.90
6357;DHT22;3211;53.452;-2.264;2024-03-08T03:53:09;6.80;99.90
6357;DHT22;3211;53.452;-2.264;2024-03-08T03:55:56;6.90;99.90
6357;DHT22;3211;53.452;-2.264;2024-03-08T03:58:45;6.90;99.90
6357;DHT22;3211;53.452;-2.264;2024-03-08T04:01:33;6.90;99.90
6357;DHT22;3211;53.452;-2.264;2024-03-08T04:04:21;6.90;99.90
6357;DHT22;3211;53.452;-2.264;2024-03-08T04:07:09;6.90;99.90
6357;DHT22;3211;53.452;-2.264;2024-03-08T04:09:56;6.90;99.90
6357;DHT22;3211;53.452;-2.264;2024-03-08T04:12:45;6.90;99.90
6357;DHT22;3211;53.452;-2.264;2024-03-08T04:15:32;6.80;99.90
6357;DHT22;3211;53.452;-2.264;2024-03-08T04:18:21;6.90;99.90
6357;DHT22;3211;53.452;-2.264;2024-03-08T04:21:08;7.00;99.90
6357;DHT22;3211;53.452;-2.264;2024-03-08T04:23:55;7.00;99.90
6357;DHT22;3211;53.452;-2.264;2024-03-08T04:26:42;6.80;99.90
6357;DHT22;3211;53.452;-2.264;2024-03-08T04:29:29;6.90;99.90
6357;DHT22;3211;53.452;-2.264;2024-03-08T04:32:18;7.00;99.90
6357;DHT22;3211;53.452;-2.264;2024-03-08T04:35:07;7.10;99.90
6357;DHT22;3211;53.452;-2.264;2024-03-08T04:37:55;7.00;99.90
6357;DHT22;3211;53.452;-2.264;2024-03-08T04:40:43;7.10;99.90
6357;DHT22;3211;53.452;-2.264;2024-03-08T04:43:30;7.10;99.90
6357;DHT22;3211;53.452;-2.264;2024-03-08T04:46:17;7.00;99.90
6357;DHT22;3211;53.452;-2.264;2024-03-08T04:49:05;7.00;99.90
6357;DHT22;3211;53.452;-2.264;2024-03-08T04:51:54;7.10;99.90
6357;DHT22;3211;53.452;-2.264;2024-03-08T04:54:42;7.20;99.90
6357;DHT22;3211;53.452;-2.264;2024-03-08T04:57:30;7.30;99.90
6357;DHT22;3211;53.452;-2.264;2024-03-08T05:00:18;7.20;99.90
6357;DHT22;3211;53.452;-2.264;2024-03-08T05:03:06;7.30;99.90
6357;DHT22;3211;53.452;-2.264;2024-03-08T05:05:53;7.20;99.90
6357;DHT22;3211;53.452;-2.264;2024-03-08T05:08:43;7.40;99.90
6357;DHT22;3211;53.452;-2.264;2024-03-08T05:11:30;7.30;99.90
6357;DHT22;3211;53.452;-2.264;2024-03-08T05:14:17;7.30;99.90
6357;DHT22;3211;53.452;-2.264;2024-03-08T05:17:06;7.30;99.90
6357;DHT22;3211;53.452;-2.264;2024-03-08T05:19:53;7.30;99.90
6357;DHT22;3211;53.452;-2.264;2024-03-08T05:22:40;7.30;99.90
6357;DHT22;3211;53.452;-2.264;2024-03-08T05:25:29;7.30;99.90
6357;DHT22;3211;53.452;-2.264;2024-03-08T05:28:16;7.20;99.90
6357;DHT22;3211;53.452;-2.264;2024-03-08T05:31:03;7.20;99.90
6357;DHT22;3211;53.452;-2.264;2024-03-08T05:33:51;7.20;99.90
6357;DHT22;3211;53.452;-2.264;2024-03-08T05:36:40;7.20;99.90
6357;DHT22;3211;53.452;-2.264;2024-03-08T05:39:27;7.30;99.90
6357;DHT22;3211;53.452;-2.264;2024-03-08T05:42:16;7.20;99.90
6357;DHT22;3211;53.452;-2.264;2024-03-08T05:45:04;7.10;99.90
6357;DHT22;3211;53.452;-2.264;2024-03-08T05:47:52;7.20;99.90
6357;DHT22;3211;53.452;-2.264;2024-03-08T05:50:39;7.10;99.90
6357;DHT22;3211;53.452;-2.264;2024-03-08T05:53:26;7.20;99.90
6357;DHT22;3211;53.452;-2.264;2024-03-08T05:56:13;7.10;99.90
6357;DHT22;3211;53.452;-2.264;2024-03-08T05:59:02;7.20;99.90
6357;DHT22;3211;53.452;-2.264;2024-03-08T06:01:49;7.10;99.90
6357;DHT22;3211;53.452;-2.264;2024-03-08T06:04:36;7.20;99.90
6357;DHT22;3211;53.452;-2.264;2024-03-08T06:07:24;7.20;99.90
6357;DHT22;3211;53.452;-2.264;2024-03-08T06:10:11;7.10;99.90
6357;DHT22;3211;53.452;-2.264;2024-03-08T06:12:59;7.20;99.90
6357;DHT22;3211;53.452;-2.264;2024-03-08T06:15:48;7.20;99.90
6357;DHT22;3211;53.452;-2.264;2024-03-08T06:18:36;7.20;99.90
6357;DHT22;3211;53.452;-2.264;2024-03-08T06:21:23;7.10;99.90
6357;DHT22;3211;53.452;-2.264;2024-03-08T06:24:12;7.10;99.90
6357;DHT22;3211;53.452;-2.264;2024-03-08T06:27:00;7.20;99.90
6357;DHT22;3211;53.452;-2.264;2024-03-08T06:29:48;7.30;99.90
6357;DHT22;3211;53.452;-2.264;2024-03-08T06:32:37;7.20;99.90
6357;DHT22;3211;53.452;-2.264;2024-03-08T06:35:24;7.10;99.90
6357;DHT22;3211;53.452;-2.264;2024-03-08T06:38:11;7.10;99.90
6357;DHT22;3211;53.452;-2.264;2024-03-08T06:41:03;7.10;99.90
6357;DHT22;3211;53.452;-2.264;2024-03-08T06:43:50;7.10;99.90
6357;DHT22;3211;53.452;-2.264;2024-03-08T06:46:43;7.20;99.90
6357;DHT22;3211;53.452;-2.264;2024-03-08T06:49:31;7.20;99.90
6357;DHT22;3211;53.452;-2.264;2024-03-08T06:52:18;7.10;99.90
6357;DHT22;3211;53.452;-2.264;2024-03-08T06:55:06;7.10;99.90
6357;DHT22;3211;53.452;-2.264;2024-03-08T06:57:54;7.10;99.90
6357;DHT22;3211;53.452;-2.264;2024-03-08T07:00:41;7.20;99.90
6357;DHT22;3211;53.452;-2.264;2024-03-08T07:03:30;7.10;99.90
6357;DHT22;3211;53.452;-2.264;2024-03-08T07:06:19;7.20;99.90
6357;DHT22;3211;53.452;-2.264;2024-03-08T07:09:06;7.20;99.90
6357;DHT22;3211;53.452;-2.264;2024-03-08T07:11:54;7.20;99.90
6357;DHT22;3211;53.452;-2.264;2024-03-08T07:14:41;7.20;99.90
6357;DHT22;3211;53.452;-2.264;2024-03-08T07:17:31;7.20;99.90
6357;DHT22;3211;53.452;-2.264;2024-03-08T07:20:20;7.20;99.90
6357;DHT22;3211;53.452;-2.264;2024-03-08T07:23:09;7.20;99.90
6357;DHT22;3211;53.452;-2.264;2024-03-08T07:25:56;7.30;99.90
6357;DHT22;3211;53.452;-2.264;2024-03-08T07:28:44;7.30;99.90
6357;DHT22;3211;53.452;-2.264;2024-03-08T07:31:31;7.40;99.90
6357;DHT22;3211;53.452;-2.264;2024-03-08T07:34:31;7.30;99.90
6357;DHT22;3211;53.452;-2.264;2024-03-08T07:37:19;7.40;99.90
6357;DHT22;3211;53.452;-2.264;2024-03-08T07:40:09;7.50;99.90
6357;DHT22;3211;53.452;-2.264;2024-03-08T07:42:59;7.40;99.90
6357;DHT22;3211;53.452;-2.264;2024-03-08T07:45:48;7.40;99.90
6357;DHT22;3211;53.452;-2.264;2024-03-08T07:48:37;7.40;99.90
6357;DHT22;3211;53.452;-2.264;2024-03-08T07:51:25;7.50;99.90
6357;DHT22;3211;53.452;-2.264;2024-03-08T07:54:12;7.60;99.90
6357;DHT22;3211;53.452;-2.264;2024-03-08T07:57:01;7.50;99.90
6357;DHT22;3211;53.452;-2.264;2024-03-08T07:59:50;7.50;99.90
6357;DHT22;3211;53.452;-2.264;2024-03-08T08:02:37;7.40;99.90
6357;DHT22;3211;53.452;-2.264;2024-03-08T08:05:25;7.40;99.90
6357;DHT22;3211;53.452;-2.264;2024-03-08T08:08:12;7.30;99.90
6357;DHT22;3211;53.452;-2.264;2024-03-08T08:11:00;7.40;99.90
6357;DHT22;3211;53.452;-2.264;2024-03-08T08:13:50;7.40;99.90
6357;DHT22;3211;53.452;-2.264;2024-03-08T08:16:37;7.40;99.90
6357;DHT22;3211;53.452;-2.264;2024-03-08T08:19:27;7.50;99.90
6357;DHT22;3211;53.452;-2.264;2024-03-08T08:22:14;7.50;99.90
6357;DHT22;3211;53.452;-2.264;2024-03-08T08:25:01;7.50;99.90
6357;DHT22;3211;53.452;-2.264;2024-03-08T08:27:49;7.50;99.90
6357;DHT22;3211;53.452;-2.264;2024-03-08T08:30:37;7.60;99.90
6357;DHT22;3211;53.452;-2.264;2024-03-08T08:33:24;7.60;99.90
6357;DHT22;3211;53.452;-2.264;2024-03-08T08:36:12;7.60;99.90
6357;DHT22;3211;53.452;-2.264;2024-03-08T08:39:00;7.60;99.90
6357;DHT22;3211;53.452;-2.264;2024-03-08T08:41:49;7.80;99.90
6357;DHT22;3211;53.452;-2.264;2024-03-08T08:44:36;7.80;99.90
6357;DHT22;3211;53.452;-2.264;2024-03-08T08:47:25;7.80;99.90
6357;DHT22;3211;53.452;-2.264;2024-03-08T08:50:12;7.90;99.90
6357;DHT22;3211;53.452;-2.264;2024-03-08T08:52:59;7.90;99.90
6357;DHT22;3211;53.452;-2.264;2024-03-08T08:55:47;7.80;99.90
6357;DHT22;3211;53.452;-2.264;2024-03-08T08:58:34;7.70;99.90
6357;DHT22;3211;53.452;-2.264;2024-03-08T09:01:21;7.80;99.90
6357;DHT22;3211;53.452;-2.264;2024-03-08T09:04:10;7.70;99.90
6357;DHT22;3211;53.452;-2.264;2024-03-08T09:07:00;7.70;99.90
6357;DHT22;3211;53.452;-2.264;2024-03-08T09:09:47;7.70;99.90
6357;DHT22;3211;53.452;-2.264;2024-03-08T09:12:34;7.60;99.90
6357;DHT22;3211;53.452;-2.264;2024-03-08T09:15:21;7.60;99.90
6357;DHT22;3211;53.452;-2.264;2024-03-08T09:18:09;7.70;99.90
6357;DHT22;3211;53.452;-2.264;2024-03-08T09:20:57;7.60;99.90
6357;DHT22;3211;53.452;-2.264;2024-03-08T09:23:45;7.80;99.90
6357;DHT22;3211;53.452;-2.264;2024-03-08T09:26:32;7.80;99.90
6357;DHT22;3211;53.452;-2.264;2024-03-08T09:29:20;7.80;99.90
6357;DHT22;3211;53.452;-2.264;2024-03-08T09:32:07;7.90;99.90
6357;DHT22;3211;53.452;-2.264;2024-03-08T09:34:54;8.00;99.90
6357;DHT22;3211;53.452;-2.264;2024-03-08T09:37:43;8.20;99.90
6357;DHT22;3211;53.452;-2.264;2024-03-08T09:40:33;8.30;99.90
6357;DHT22;3211;53.452;-2.264;2024-03-08T09:43:20;8.30;99.90
6357;DHT22;3211;53.452;-2.264;2024-03-08T09:46:08;8.20;99.90
6357;DHT22;3211;53.452;-2.264;2024-03-08T09:48:56;8.40;99.90
6357;DHT22;3211;53.452;-2.264;2024-03-08T09:51:44;8.40;99.90
6357;DHT22;3211;53.452;-2.264;2024-03-08T09:54:33;8.30;99.90
6357;DHT22;3211;53.452;-2.264;2024-03-08T09:57:21;8.40;99.90
6357;DHT22;3211;53.452;-2.264;2024-03-08T10:00:08;8.40;99.90
6357;DHT22;3211;53.452;-2.264;2024-03-08T10:03:04;8.20;99.90
6357;DHT22;3211;53.452;-2.264;2024-03-08T10:05:51;8.30;99.90
6357;DHT22;3211;53.452;-2.264;2024-03-08T10:08:39;8.40;99.90
6357;DHT22;3211;53.452;-2.264;2024-03-08T10:11:28;8.40;99.90
6357;DHT22;3211;53.452;-2.264;2024-03-08T10:14:17;8.30;99.90
6357;DHT22;3211;53.452;-2.264;2024-03-08T10:17:04;8.20;99.90
6357;DHT22;3211;53.452;-2.264;2024-03-08T10:19:51;8.20;99.90
6357;DHT22;3211;53.452;-2.264;2024-03-08T10:22:39;8.30;99.90
6357;DHT22;3211;53.452;-2.264;2024-03-08T10:25:28;8.30;99.90
6357;DHT22;3211;53.452;-2.264;2024-03-08T10:28:18;8.40;99.90
6357;DHT22;3211;53.452;-2.264;2024-03-08T10:31:05;8.50;99.90
6357;DHT22;3211;53.452;-2.264;2024-03-08T10:33:52;8.50;99.90
6357;DHT22;3211;53.452;-2.264;2024-03-08T10:36:41;8.50;99.90
6357;DHT22;3211;53.452;-2.264;2024-03-08T10:39:34;8.50;99.90
6357;DHT22;3211;53.452;-2.264;2024-03-08T10:42:25;8.60;99.90
6357;DHT22;3211;53.452;-2.264;2024-03-08T10:45:23;8.40;99.90
6357;DHT22;3211;53.452;-2.264;2024-03-08T10:48:25;8.50;99.90
6357;DHT22;3211;53.452;-2.264;2024-03-08T10:51:14;8.30;99.90
6357;DHT22;3211;53.452;-2.264;2024-03-08T10:54:03;8.30;99.90
6357;DHT22;3211;53.452;-2.264;2024-03-08T10:56:51;8.40;99.90
6357;DHT22;3211;53.452;-2.264;2024-03-08T10:59:39;8.40;99.90
6357;DHT22;3211;53.452;-2.264;2024-03-08T11:02:30;8.40;99.90
6357;DHT22;3211;53.452;-2.264;2024-03-08T11:05:32;8.40;99.90
6357;DHT22;3211;53.452;-2.264;2024-03-08T11:08:21;8.40;99.90
6357;DHT22;3211;53.452;-2.264;2024-03-08T11:11:24;8.40;99.90
6357;DHT22;3211;53.452;-2.264;2024-03-08T11:14:43;8.40;99.90
6357;DHT22;3211;53.452;-2.264;2024-03-08T11:17:46;8.40;99.90
6357;DHT22;3211;53.452;-2.264;2024-03-08T11:20:34;8.30;99.90
6357;DHT22;3211;53.452;-2.264;2024-03-08T11:23:23;8.30;99.90
6357;DHT22;3211;53.452;-2.264;2024-03-08T11:26:19;8.40;99.90
6357;DHT22;3211;53.452;-2.264;2024-03-08T11:29:41;8.40;99.90
6357;DHT22;3211;53.452;-2.264;2024-03-08T11:32:29;8.40;99.90
6357;DHT22;3211;53.452;-2.264;2024-03-08T11:35:20;8.30;99.90
6357;DHT22;3211;53.452;-2.264;2024-03-08T11:38:09;8.40;99.90
6357;DHT22;3211;53.452;-2.264;2024-03-08T11:40:57;8.30;99.90
6357;DHT22;3211;53.452;-2.264;2024-03-08T11:43:44;8.20;99.90
6357;DHT22;3211;53.452;-2.264;2024-03-08T11:46:31;8.30;99.90
6357;DHT22;3211;53.452;-2.264;2024-03-08T11:49:19;8.30;99.90
6357;DHT22;3211;53.452;-2.264;2024-03-08T11:52:10;8.30;99.90
6357;DHT22;3211;53.452;-2.264;2024-03-08T11:54:59;8.20;99.90
6357;DHT22;3211;53.452;-2.264;2024-03-08T11:57:46;8.30;99.90
6357;DHT22;3211;53.452;-2.264;2024-03-08T12:00:34;8.20;99.90
6357;DHT22;3211;53.452;-2.264;2024-03-08T12:03:24;8.30;99.90
6357;DHT22;3211;53.452;-2.264;2024-03-08T12:06:11;8.30;99.90
6357;DHT22;3211;53.452;-2.264;2024-03-08T12:09:01;8.30;99.90
6357;DHT22;3211;53.452;-2.264;2024-03-08T12:11:48;8.20;99.90
6357;DHT22;3211;53.452;-2.264;2024-03-08T12:14:36;8.20;99.90
6357;DHT22;3211;53.452;-2.264;2024-03-08T12:17:24;8.30;99.90
6357;DHT22;3211;53.452;-2.264;2024-03-08T12:20:12;8.30;99.90
6357;DHT22;3211;53.452;-2.264;2024-03-08T12:23:00;8.40;99.90
6357;DHT22;3211;53.452;-2.264;2024-03-08T12:25:48;8.40;99.90
6357;DHT22;3211;53.452;-2.264;2024-03-08T12:28:36;8.40;99.90
6357;DHT22;3211;53.452;-2.264;2024-03-08T12:31:23;8.50;99.90
6357;DHT22;3211;53.452;-2.264;2024-03-08T12:34:11;8.60;99.90
6357;DHT22;3211;53.452;-2.264;2024-03-08T12:36:59;8.40;99.90
6357;DHT22;3211;53.452;-2.264;2024-03-08T12:39:47;8.40;99.90
6357;DHT22;3211;53.452;-2.264;2024-03-08T12:42:36;8.50;99.90
6357;DHT22;3211;53.452;-2.264;2024-03-08T12:45:25;8.60;99.90
6357;DHT22;3211;53.452;-2.264;2024-03-08T12:48:13;8.90;99.90
6357;DHT22;3211;53.452;-2.264;2024-03-08T12:51:01;8.90;99.90
6357;DHT22;3211;53.452;-2.264;2024-03-08T12:53:48;9.30;99.90
6357;DHT22;3211;53.452;-2.264;2024-03-08T12:56:41;9.30;99.90
6357;DHT22;3211;53.452;-2.264;2024-03-08T12:59:30;9.20;99.90
6357;DHT22;3211;53.452;-2.264;2024-03-08T13:02:17;9.00;99.90
6357;DHT22;3211;53.452;-2.264;2024-03-08T13:05:05;9.10;99.90
6357;DHT22;3211;53.452;-2.264;2024-03-08T13:07:52;9.00;99.90
6357;DHT22;3211;53.452;-2.264;2024-03-08T13:10:40;9.10;99.90
6357;DHT22;3211;53.452;-2.264;2024-03-08T13:13:29;9.30;99.90
6357;DHT22;3211;53.452;-2.264;2024-03-08T13:16:18;9.10;99.90
6357;DHT22;3211;53.452;-2.264;2024-03-08T13:19:05;9.10;99.90
6357;DHT22;3211;53.452;-2.264;2024-03-08T13:21:52;9.10;99.90
6357;DHT22;3211;53.452;-2.264;2024-03-08T13:24:39;9.10;99.90
6357;DHT22;3211;53.452;-2.264;2024-03-08T13:27:27;9.10;99.90
6357;DHT22;3211;53.452;-2.264;2024-03-08T13:30:15;9.00;99.90
6357;DHT22;3211;53.452;-2.264;2024-03-08T13:33:05;8.90;99.90
6357;DHT22;3211;53.452;-2.264;2024-03-08T13:35:53;9.10;99.90
6357;DHT22;3211;53.452;-2.264;2024-03-08T13:38:42;8.90;99.90
6357;DHT22;3211;53.452;-2.264;2024-03-08T13:41:29;8.90;99.90
6357;DHT22;3211;53.452;-2.264;2024-03-08T13:44:17;8.90;99.90
6357;DHT22;3211;53.452;-2.264;2024-03-08T13:47:04;9.00;99.90
6357;DHT22;3211;53.452;-2.264;2024-03-08T13:49:54;9.00;99.90
6357;DHT22;3211;53.452;-2.264;2024-03-08T13:52:42;9.00;99.90
6357;DHT22;3211;53.452;-2.264;2024-03-08T13:55:30;9.20;99.90
6357;DHT22;3211;53.452;-2.264;2024-03-08T13:58:17;9.30;99.90
6357;DHT22;3211;53.452;-2.264;2024-03-08T14:01:06;9.40;99.90
6357;DHT22;3211;53.452;-2.264;2024-03-08T14:03:57;9.20;99.90
6357;DHT22;3211;53.452;-2.264;2024-03-08T14:06:46;9.20;99.90
6357;DHT22;3211;53.452;-2.264;2024-03-08T14:09:36;9.30;99.90
6357;DHT22;3211;53.452;-2.264;2024-03-08T14:12:28;9.10;99.90
6357;DHT22;3211;53.452;-2.264;2024-03-08T14:15:15;9.20;99.90
6357;DHT22;3211;53.452;-2.264;2024-03-08T14:18:03;9.10;99.90
6357;DHT22;3211;53.452;-2.264;2024-03-08T14:20:52;8.90;99.90
6357;DHT22;3211;53.452;-2.264;2024-03-08T14:23:42;9.10;99.90
6357;DHT22;3211;53.452;-2.264;2024-03-08T14:26:29;9.20;99.90
6357;DHT22;3211;53.452;-2.264;2024-03-08T14:29:17;9.30;99.90
6357;DHT22;3211;53.452;-2.264;2024-03-08T14:32:05;9.30;99.90
6357;DHT22;3211;53.452;-2.264;2024-03-08T14:34:52;9.30;99.90
6357;DHT22;3211;53.452;-2.264;2024-03-08T14:37:41;9.10;99.90
6357;DHT22;3211;53.452;-2.264;2024-03-08T14:40:30;9.20;99.90
6357;DHT22;3211;53.452;-2.264;2024-03-08T14:43:17;9.10;99.90
6357;DHT22;3211;53.452;-2.264;2024-03-08T14:46:07;9.20;99.90
6357;DHT22;3211;53.452;-2.264;2024-03-08T14:48:55;9.10;99.90
6357;DHT22;3211;53.452;-2.264;2024-03-08T14:51:43;9.10;99.90
6357;DHT22;3211;53.452;-2.264;2024-03-08T14:54:30;9.00;99.90
6357;DHT22;3211;53.452;-2.264;2024-03-08T14:57:19;9.10;99.90
6357;DHT22;3211;53.452;-2.264;2024-03-08T15:00:07;9.00;99.90
6357;DHT22;3211;53.452;-2.264;2024-03-08T15:03:02;9.20;99.90
6357;DHT22;3211;53.452;-2.264;2024-03-08T15:05:50;9.20;99.90
6357;DHT22;3211;53.452;-2.264;2024-03-08T15:08:38;9.10;99.90
6357;DHT22;3211;53.452;-2.264;2024-03-08T15:11:26;8.90;99.90
6357;DHT22;3211;53.452;-2.264;2024-03-08T15:14:15;8.80;99.90
6357;DHT22;3211;53.452;-2.264;2024-03-08T15:17:03;8.90;99.90
6357;DHT22;3211;53.452;-2.264;2024-03-08T15:19:56;8.90;99.90
6357;DHT22;3211;53.452;-2.264;2024-03-08T15:22:46;8.90;99.90
6357;DHT22;3211;53.452;-2.264;2024-03-08T15:25:34;9.00;99.90
6357;DHT22;3211;53.452;-2.264;2024-03-08T15:28:22;9.30;99.90
6357;DHT22;3211;53.452;-2.264;2024-03-08T15:31:18;9.30;99.90
6357;DHT22;3211;53.452;-2.264;2024-03-08T15:34:08;9.00;99.90
6357;DHT22;3211;53.452;-2.264;2024-03-08T15:36:57;9.00;99.90
6357;DHT22;3211;53.452;-2.264;2024-03-08T15:39:47;8.90;99.90
6357;DHT22;3211;53.452;-2.264;2024-03-08T15:42:35;8.90;99.90
6357;DHT22;3211;53.452;-2.264;2024-03-08T15:45:22;9.70;99.90
6357;DHT22;3211;53.452;-2.264;2024-03-08T15:48:11;9.50;99.90
6357;DHT22;3211;53.452;-2.264;2024-03-08T15:50:59;9.20;99.90
6357;DHT22;3211;53.452;-2.264;2024-03-08T15:53:48;9.00;99.90
6357;DHT22;3211;53.452;-2.264;2024-03-08T15:56:39;8.90;99.90
6357;DHT22;3211;53.452;-2.264;2024-03-08T15:59:26;9.30;99.90
6357;DHT22;3211;53.452;-2.264;2024-03-08T16:02:14;11.30;99.90
6357;DHT22;3211;53.452;-2.264;2024-03-08T16:05:06;10.40;99.90
6357;DHT22;3211;53.452;-2.264;2024-03-08T16:07:54;9.50;99.90
6357;DHT22;3211;53.452;-2.264;2024-03-08T16:10:42;9.20;99.90
6357;DHT22;3211;53.452;-2.264;2024-03-08T16:13:33;9.00;99.90
6357;DHT22;3211;53.452;-2.264;2024-03-08T16:16:23;8.90;99.90
6357;DHT22;3211;53.452;-2.264;2024-03-08T16:19:12;8.90;99.90
6357;DHT22;3211;53.452;-2.264;2024-03-08T16:22:01;8.90;99.90
6357;DHT22;3211;53.452;-2.264;2024-03-08T16:24:50;9.10;99.90
6357;DHT22;3211;53.452;-2.264;2024-03-08T16:27:39;9.20;99.90
6357;DHT22;3211;53.452;-2.264;2024-03-08T16:30:27;8.90;99.90
6357;DHT22;3211;53.452;-2.264;2024-03-08T16:33:18;8.80;99.90
6357;DHT22;3211;53.452;-2.264;2024-03-08T16:36:05;8.80;99.90
6357;DHT22;3211;53.452;-2.264;2024-03-08T16:38:54;8.80;99.90
6357;DHT22;3211;53.452;-2.264;2024-03-08T16:41:44;8.70;99.90
6357;DHT22;3211;53.452;-2.264;2024-03-08T16:44:32;8.70;99.90
6357;DHT22;3211;53.452;-2.264;2024-03-08T16:47:19;8.60;99.90
6357;DHT22;3211;53.452;-2.264;2024-03-08T16:50:09;8.50;99.90
6357;DHT22;3211;53.452;-2.264;2024-03-08T16:52:59;8.40;99.90
6357;DHT22;3211;53.452;-2.264;2024-03-08T16:55:47;8.60;99.90
6357;DHT22;3211;53.452;-2.264;2024-03-08T16:58:37;8.50;99.90
6357;DHT22;3211;53.452;-2.264;2024-03-08T17:01:27;8.50;99.90
6357;DHT22;3211;53.452;-2.264;2024-03-08T17:04:14;8.40;99.90
6357;DHT22;3211;53.452;-2.264;2024-03-08T17:07:04;8.50;99.90
6357;DHT22;3211;53.452;-2.264;2024-03-08T17:09:52;8.30;99.90
6357;DHT22;3211;53.452;-2.264;2024-03-08T17:12:41;8.30;99.90
6357;DHT22;3211;53.452;-2.264;2024-03-08T17:15:30;8.30;99.90
6357;DHT22;3211;53.452;-2.264;2024-03-08T17:18:18;8.30;99.90
6357;DHT22;3211;53.452;-2.264;2024-03-08T17:21:05;8.20;99.90
6357;DHT22;3211;53.452;-2.264;2024-03-08T17:23:58;8.10;99.90
6357;DHT22;3211;53.452;-2.264;2024-03-08T17:26:47;7.90;99.90
6357;DHT22;3211;53.452;-2.264;2024-03-08T17:29:35;7.90;99.90
6357;DHT22;3211;53.452;-2.264;2024-03-08T17:32:23;7.90;99.90
6357;DHT22;3211;53.452;-2.264;2024-03-08T17:35:11;7.80;99.90
6357;DHT22;3211;53.452;-2.264;2024-03-08T17:37:58;7.60;99.90
6357;DHT22;3211;53.452;-2.264;2024-03-08T17:40:45;7.50;99.90
6357;DHT22;3211;53.452;-2.264;2024-03-08T17:43:33;7.40;99.90
6357;DHT22;3211;53.452;-2.264;2024-03-08T17:46:22;7.40;99.90
6357;DHT22;3211;53.452;-2.264;2024-03-08T17:49:11;7.30;99.90
6357;DHT22;3211;53.452;-2.264;2024-03-08T17:51:58;7.30;99.90
6357;DHT22;3211;53.452;-2.264;2024-03-08T17:54:50;7.20;99.90
6357;DHT22;3211;53.452;-2.264;2024-03-08T17:57:38;7.10;99.90
6357;DHT22;3211;53.452;-2.264;2024-03-08T18:00:26;7.10;99.90
6357;DHT22;3211;53.452;-2.264;2024-03-08T18:03:16;7.20;99.90
6357;DHT22;3211;53.452;-2.264;2024-03-08T18:06:04;7.20;99.90
6357;DHT22;3211;53.452;-2.264;2024-03-08T18:08:51;7.10;99.90
6357;DHT22;3211;53.452;-2.264;2024-03-08T18:11:39;7.30;99.90
6357;DHT22;3211;53.452;-2.264;2024-03-08T18:14:33;7.20;99.90
6357;DHT22;3211;53.452;-2.264;2024-03-08T18:17:27;7.30;99.90
6357;DHT22;3211;53.452;-2.264;2024-03-08T18:20:31;7.30;99.90